Time;durP1;ratioP1;P1;durP2;ratioP2;P2;SDS_P1;SDS_P2;PMS_P1;PMS_P2;Temp;Humidity;BMP_temperature;BMP_pressure;BME280_temperature;BME280_humidity;BME280_pressure;Samples;Min_cycle;Max_cycle;Signal;HPM_P1;HPM_P2
2023/05/09 00:01:06;;;;;;;53.53;29.15;;;15.00;99.90;;;;;;4943668;28;20029;-72
2023/05/09 00:03:33;;;;;;;65.07;33.42;;;15.10;99.90;;;;;;4953716;28;20038;-72
2023/05/09 00:05:59;;;;;;;63.05;34.22;;;15.00;99.90;;;;;;4948889;28;20047;-72
2023/05/09 00:08:25;;;;;;;62.95;33.55;;;15.10;99.90;;;;;;4959806;28;21673;-72
2023/05/09 00:10:52;;;;;;;61.47;32.20;;;15.10;99.90;;;;;;4956233;28;20038;-72
2023/05/09 00:13:19;;;;;;;62.42;33.50;;;15.20;99.90;;;;;;4949913;28;20054;-72
2023/05/09 00:15:45;;;;;;;60.20;31.52;;;15.20;99.90;;;;;;4924312;28;20640;-72
2023/05/09 00:18:13;;;;;;;66.25;32.58;;;15.30;99.90;;;;;;4949277;28;20042;-72
2023/05/09 00:20:39;;;;;;;63.78;31.85;;;15.30;99.90;;;;;;4926074;28;20038;-72
2023/05/09 00:23:06;;;;;;;58.10;31.98;;;15.30;99.90;;;;;;4930665;28;20096;-72
2023/05/09 00:25:32;;;;;;;62.70;33.63;;;15.30;99.90;;;;;;4929194;28;20042;-72
2023/05/09 00:27:59;;;;;;;68.72;33.25;;;15.30;99.90;;;;;;4955933;28;20688;-72
2023/05/09 00:30:25;;;;;;;66.88;35.13;;;15.30;99.90;;;;;;4936676;28;20050;-72
2023/05/09 00:32:52;;;;;;;62.55;32.97;;;15.30;99.90;;;;;;4971611;28;20042;-72
2023/05/09 00:35:18;;;;;;;60.00;30.17;;;15.30;99.90;;;;;;4925702;28;20054;-72
2023/05/09 00:37:44;;;;;;;58.67;30.48;;;15.30;99.90;;;;;;4947508;28;20038;-73
2023/05/09 00:40:11;;;;;;;56.03;28.77;;;15.30;99.90;;;;;;4956863;28;20054;-72
2023/05/09 00:42:37;;;;;;;63.03;31.95;;;15.30;99.90;;;;;;4947175;28;20036;-72
2023/05/09 00:45:05;;;;;;;61.42;31.00;;;15.30;99.90;;;;;;4945169;28;20051;-73
2023/05/09 00:47:33;;;;;;;59.95;31.17;;;15.30;99.90;;;;;;4949416;28;20050;-73
2023/05/09 00:50:00;;;;;;;56.63;30.60;;;15.30;99.90;;;;;;4967082;28;20038;-73
2023/05/09 00:52:27;;;;;;;57.95;30.77;;;15.40;99.90;;;;;;4956451;28;20027;-73
2023/05/09 00:54:55;;;;;;;58.47;31.25;;;15.30;99.90;;;;;;4949893;28;22113;-72
2023/05/09 00:57:22;;;;;;;53.03;29.02;;;15.30;99.90;;;;;;4946441;28;20030;-73
2023/05/09 00:59:49;;;;;;;56.20;28.77;;;15.30;99.90;;;;;;4927287;28;20050;-73
2023/05/09 01:02:17;;;;;;;58.65;31.02;;;15.30;99.90;;;;;;4930006;28;21257;-73
2023/05/09 01:04:47;;;;;;;58.10;29.92;;;15.30;99.90;;;;;;4941104;28;20074;-73
2023/05/09 01:07:29;;;;;;;55.97;27.95;;;15.30;99.90;;;;;;4946061;28;20045;-73
2023/05/09 01:09:59;;;;;;;53.35;27.88;;;15.40;99.90;;;;;;4942963;28;20039;-73
2023/05/09 01:12:51;;;;;;;53.65;27.35;;;15.40;99.90;;;;;;4919024;28;1080071;-73
2023/05/09 01:15:29;;;;;;;53.00;28.05;;;15.40;99.90;;;;;;4949372;28;20153;-73
2023/05/09 01:18:11;;;;;;;57.78;28.80;;;15.40;99.90;;;;;;4938303;28;20045;-73
2023/05/09 01:20:58;;;;;;;62.20;31.77;;;15.40;99.90;;;;;;4957004;28;20065;-72
2023/05/09 01:23:43;;;;;;;56.97;29.50;;;15.40;99.90;;;;;;4948423;28;20053;-73
2023/05/09 01:26:37;;;;;;;57.03;30.00;;;15.40;99.90;;;;;;4943733;28;20057;-73
2023/05/09 01:29:36;;;;;;;53.42;28.15;;;15.40;99.90;;;;;;4951824;28;20060;-73
2023/05/09 01:32:07;;;;;;;62.15;31.30;;;15.40;99.90;;;;;;4947579;28;20072;-72
2023/05/09 01:34:34;;;;;;;57.95;28.25;;;15.40;99.90;;;;;;4954172;28;20296;-73
2023/05/09 01:37:04;;;;;;;52.85;29.63;;;15.40;99.90;;;;;;4943830;28;20046;-73
2023/05/09 01:39:32;;;;;;;61.58;30.23;;;15.40;99.90;;;;;;4924490;28;20402;-73
2023/05/09 01:42:03;;;;;;;59.17;30.48;;;15.30;99.90;;;;;;4947212;28;20486;-73
2023/05/09 01:44:35;;;;;;;60.85;30.77;;;15.40;99.90;;;;;;4945145;28;20053;-73
2023/05/09 01:47:02;;;;;;;;;;;15.40;99.90;;;;;;4948169;28;20038;-73
2023/05/09 01:49:31;;;;;;;51.92;27.40;;;15.30;99.90;;;;;;4946749;28;19928;-73
2023/05/09 01:52:00;;;;;;;52.58;25.85;;;15.40;99.90;;;;;;4942140;28;20042;-73
2023/05/09 01:54:27;;;;;;;52.63;27.95;;;15.40;99.90;;;;;;4924399;28;20042;-73
2023/05/09 01:56:55;;;;;;;50.17;26.02;;;15.40;99.90;;;;;;4958749;28;20042;-73
2023/05/09 01:59:22;;;;;;;54.70;29.10;;;15.40;99.90;;;;;;4960806;28;20038;-73
2023/05/09 02:01:49;;;;;;;60.42;30.58;;;15.40;99.90;;;;;;4947300;28;20630;-73
2023/05/09 02:04:17;;;;;;;55.60;29.20;;;15.40;99.90;;;;;;4940724;28;20052;-73
2023/05/09 02:06:48;;;;;;;58.63;28.77;;;15.40;99.90;;;;;;4946336;28;20038;-73
2023/05/09 02:09:15;;;;;;;55.50;27.80;;;15.40;99.90;;;;;;4949390;28;20065;-73
2023/05/09 02:11:41;;;;;;;53.10;28.95;;;15.40;99.90;;;;;;4941021;28;20062;-73
2023/05/09 02:14:08;;;;;;;59.75;30.65;;;15.40;99.90;;;;;;4940658;28;21283;-72
2023/05/09 02:16:34;;;;;;;56.40;30.38;;;15.40;99.90;;;;;;4925132;28;20401;-73
2023/05/09 02:19:02;;;;;;;52.00;27.73;;;15.40;99.90;;;;;;4974987;28;20045;-73
2023/05/09 02:21:28;;;;;;;58.60;29.98;;;15.40;99.90;;;;;;4937236;28;20034;-73
2023/05/09 02:23:55;;;;;;;53.08;29.63;;;15.40;99.90;;;;;;4950444;28;20043;-73
2023/05/09 02:26:21;;;;;;;53.90;28.20;;;15.30;99.90;;;;;;4961212;28;20476;-72
2023/05/09 02:28:49;;;;;;;63.72;31.65;;;15.30;99.90;;;;;;4945868;28;20588;-72
2023/05/09 02:31:19;;;;;;;53.25;28.05;;;15.30;99.90;;;;;;4957214;28;20050;-72
2023/05/09 02:33:50;;;;;;;55.88;29.00;;;15.30;99.90;;;;;;4944581;28;20913;-72
2023/05/09 02:36:17;;;;;;;56.13;29.88;;;15.30;99.90;;;;;;4946129;28;20057;-72
2023/05/09 02:38:44;;;;;;;54.33;28.52;;;15.30;99.90;;;;;;4947921;28;20042;-72
2023/05/09 02:41:14;;;;;;;56.72;30.90;;;15.20;99.90;;;;;;4969510;28;20042;-72
2023/05/09 02:43:40;;;;;;;61.97;30.92;;;15.20;99.90;;;;;;4956852;28;21215;-72
2023/05/09 02:46:08;;;;;;;59.33;28.63;;;15.20;99.90;;;;;;4950173;28;20042;-72
2023/05/09 02:48:35;;;;;;;56.60;29.02;;;15.10;99.90;;;;;;4947110;28;20045;-72
2023/05/09 02:51:01;;;;;;;55.13;28.20;;;15.10;99.90;;;;;;4943653;28;20495;-72
2023/05/09 02:53:28;;;;;;;54.45;27.85;;;15.10;99.90;;;;;;4949304;28;20046;-72
2023/05/09 02:55:54;;;;;;;58.30;29.20;;;15.10;99.90;;;;;;4964797;28;20042;-72
2023/05/09 02:58:20;;;;;;;57.38;29.05;;;15.10;99.90;;;;;;4951395;28;20045;-72
2023/05/09 03:00:47;;;;;;;59.20;28.90;;;15.10;99.90;;;;;;4945470;28;20698;-73
2023/05/09 03:03:14;;;;;;;52.58;27.95;;;15.00;99.90;;;;;;4927974;28;20453;-73
2023/05/09 03:05:41;;;;;;;56.45;28.90;;;15.10;99.90;;;;;;4959552;28;20054;-73
2023/05/09 03:08:07;;;;;;;59.17;28.13;;;15.00;99.90;;;;;;4946094;28;20086;-73
2023/05/09 03:10:34;;;;;;;57.40;28.77;;;15.00;99.90;;;;;;4929401;28;20046;-73
2023/05/09 03:13:02;;;;;;;58.28;29.05;;;15.10;99.90;;;;;;4949890;28;20078;-73
2023/05/09 03:15:28;;;;;;;55.80;27.88;;;15.10;99.90;;;;;;4962073;28;22013;-73
2023/05/09 03:17:55;;;;;;;60.20;29.65;;;15.10;99.90;;;;;;4948441;28;20037;-73
2023/05/09 03:20:21;;;;;;;59.35;30.05;;;15.10;99.90;;;;;;4929470;28;20038;-74
2023/05/09 03:22:49;;;;;;;66.95;31.77;;;15.10;99.90;;;;;;4950548;28;20042;-73
2023/05/09 03:25:15;;;;;;;65.13;31.33;;;15.20;99.90;;;;;;4924773;28;20061;-73
2023/05/09 03:27:41;;;;;;;57.15;27.95;;;15.20;99.90;;;;;;4943217;28;20505;-73
2023/05/09 03:30:14;;;;;;;106.78;46.40;;;15.10;99.90;;;;;;4952535;28;20034;-73
2023/05/09 03:32:42;;;;;;;76.85;36.30;;;15.20;99.90;;;;;;4935243;28;20034;-74
2023/05/09 03:35:08;;;;;;;80.40;37.47;;;15.10;99.90;;;;;;4963206;28;20393;-74
2023/05/09 03:37:35;;;;;;;104.80;43.58;;;15.20;99.90;;;;;;4966708;28;20045;-74
2023/05/09 03:40:02;;;;;;;95.40;43.30;;;15.20;99.90;;;;;;4945829;28;20038;-73
2023/05/09 03:42:32;;;;;;;90.07;39.90;;;15.20;99.90;;;;;;4966592;28;20053;-73
2023/05/09 03:45:01;;;;;;;85.18;38.88;;;15.10;99.90;;;;;;4951238;28;20064;-73
2023/05/09 03:47:28;;;;;;;83.30;38.08;;;15.10;99.90;;;;;;4961543;28;20029;-72
2023/05/09 03:49:55;;;;;;;74.13;35.88;;;15.10;99.90;;;;;;4954074;28;20101;-73
2023/05/09 03:52:22;;;;;;;77.97;36.78;;;15.10;99.90;;;;;;4954039;28;20047;-73
2023/05/09 03:54:48;;;;;;;83.68;38.53;;;15.20;99.90;;;;;;4949927;28;20590;-73
2023/05/09 03:57:15;;;;;;;78.28;36.70;;;15.20;99.90;;;;;;4919970;28;20557;-73
2023/05/09 03:59:43;;;;;;;75.90;36.60;;;15.10;99.90;;;;;;4952641;28;21608;-73
2023/05/09 04:02:10;;;;;;;89.40;40.05;;;15.20;99.90;;;;;;4952629;28;20764;-73
2023/05/09 04:04:36;;;;;;;79.13;38.08;;;15.10;99.90;;;;;;4935049;28;20072;-73
2023/05/09 04:07:03;;;;;;;72.00;34.85;;;15.20;99.90;;;;;;4942163;28;20389;-73
2023/05/09 04:09:29;;;;;;;67.38;33.92;;;15.20;99.90;;;;;;4978686;28;20042;-73
2023/05/09 04:11:56;;;;;;;69.78;33.63;;;15.20;99.90;;;;;;4972982;28;20544;-73
2023/05/09 04:14:22;;;;;;;69.63;34.75;;;15.10;99.90;;;;;;4921265;28;20043;-73
2023/05/09 04:16:48;;;;;;;65.75;33.42;;;15.10;99.90;;;;;;4936903;28;20042;-73
2023/05/09 04:19:14;;;;;;;68.65;33.70;;;15.10;99.90;;;;;;4953132;28;20038;-73
2023/05/09 04:21:41;;;;;;;73.93;35.45;;;15.10;99.90;;;;;;4966244;28;20042;-72
2023/05/09 04:24:08;;;;;;;66.72;34.25;;;15.10;99.90;;;;;;4931385;28;20657;-73
2023/05/09 04:26:47;;;;;;;59.67;30.40;;;15.10;99.90;;;;;;4951318;28;20409;-73
2023/05/09 04:29:16;;;;;;;60.42;31.33;;;15.10;99.90;;;;;;4940508;28;20034;-73
2023/05/09 04:31:48;;;;;;;66.82;32.97;;;15.10;99.90;;;;;;4953668;28;20453;-72
2023/05/09 04:34:15;;;;;;;65.25;32.78;;;15.10;99.90;;;;;;4941967;28;20042;-73
2023/05/09 04:36:43;;;;;;;65.50;32.53;;;15.10;99.90;;;;;;4951743;28;21719;-72
2023/05/09 04:39:09;;;;;;;66.85;32.90;;;15.10;99.90;;;;;;4952007;28;20619;-72
2023/05/09 04:41:37;;;;;;;73.05;33.70;;;15.10;99.90;;;;;;4945010;28;20034;-72
2023/05/09 04:44:04;;;;;;;61.42;31.98;;;15.20;99.90;;;;;;4948229;28;20489;-73
2023/05/09 04:46:30;;;;;;;66.97;33.67;;;15.10;99.90;;;;;;4921946;28;20041;-73
2023/05/09 04:48:57;;;;;;;68.20;33.55;;;15.10;99.90;;;;;;4950406;28;20757;-73
2023/05/09 04:51:23;;;;;;;65.93;34.13;;;15.10;99.90;;;;;;4955149;28;20444;-73
2023/05/09 04:53:51;;;;;;;55.53;29.42;;;15.10;99.90;;;;;;4958374;28;20042;-72
2023/05/09 04:56:19;;;;;;;64.93;34.95;;;15.10;99.90;;;;;;4958167;28;20030;-73
2023/05/09 04:58:47;;;;;;;64.07;33.72;;;15.10;99.90;;;;;;4921554;28;20452;-74
2023/05/09 05:01:15;;;;;;;65.35;33.17;;;15.10;99.90;;;;;;4914972;28;20701;-74
2023/05/09 05:03:41;;;;;;;67.20;37.70;;;15.00;99.90;;;;;;4969283;28;20049;-74
2023/05/09 05:06:08;;;;;;;64.55;34.88;;;15.10;99.90;;;;;;4948840;28;20039;-74
2023/05/09 05:08:35;;;;;;;63.28;34.72;;;15.10;99.90;;;;;;4938375;28;20050;-74
2023/05/09 05:11:02;;;;;;;53.20;30.77;;;15.10;99.90;;;;;;4932854;28;22148;-73
2023/05/09 05:13:29;;;;;;;66.93;34.83;;;15.10;99.90;;;;;;4974523;28;20042;-73
2023/05/09 05:15:59;;;;;;;60.33;32.65;;;15.10;99.90;;;;;;4974767;28;20049;-74
2023/05/09 05:18:25;;;;;;;53.75;30.85;;;15.10;99.90;;;;;;4957069;28;20037;-74
2023/05/09 05:20:51;;;;;;;56.13;32.50;;;15.10;99.90;;;;;;4944602;28;20039;-74
2023/05/09 05:23:18;;;;;;;52.65;29.00;;;15.10;99.90;;;;;;4935489;28;20041;-75
2023/05/09 05:25:45;;;;;;;46.65;28.27;;;15.10;99.90;;;;;;4948075;28;20445;-74
2023/05/09 05:28:13;;;;;;;47.90;29.17;;;15.10;99.90;;;;;;4952463;28;20401;-78
2023/05/09 05:30:40;;;;;;;47.10;29.13;;;15.20;99.90;;;;;;4944923;28;20049;-76
2023/05/09 05:33:06;;;;;;;44.45;27.38;;;15.20;99.90;;;;;;4936034;28;20034;-73
2023/05/09 05:35:32;;;;;;;53.40;33.15;;;15.20;99.90;;;;;;4952132;28;20049;-73
2023/05/09 05:37:59;;;;;;;53.70;32.13;;;15.30;99.90;;;;;;4960157;28;20393;-73
2023/05/09 05:40:26;;;;;;;56.40;33.03;;;15.30;99.90;;;;;;4954590;28;20057;-73
2023/05/09 05:42:53;;;;;;;54.75;33.00;;;15.40;99.90;;;;;;4953519;28;20034;-72
2023/05/09 05:45:19;;;;;;;54.45;33.40;;;15.40;99.90;;;;;;4916756;28;20081;-74
2023/05/09 05:47:49;;;;;;;46.30;27.77;;;15.50;99.90;;;;;;4952716;28;20037;-75
2023/05/09 05:50:16;;;;;;;52.03;31.33;;;15.60;99.90;;;;;;4945290;28;20035;-76
2023/05/09 05:52:42;;;;;;;45.83;29.73;;;15.60;99.90;;;;;;4936004;28;20043;-74
2023/05/09 05:55:12;;;;;;;47.30;28.65;;;15.70;99.90;;;;;;4950529;28;20058;-74
2023/05/09 05:57:39;;;;;;;46.55;28.20;;;15.70;99.90;;;;;;4941142;28;20053;-73
2023/05/09 06:00:10;;;;;;;53.20;32.40;;;15.80;99.90;;;;;;4939914;28;20039;-73
2023/05/09 06:02:43;;;;;;;43.30;28.95;;;15.80;99.90;;;;;;4955099;28;20055;-75
2023/05/09 06:05:12;;;;;;;52.42;31.90;;;15.90;99.90;;;;;;4920209;28;20038;-73
2023/05/09 06:07:40;;;;;;;47.58;30.95;;;16.00;99.90;;;;;;4969370;28;20637;-75
2023/05/09 06:10:07;;;;;;;48.75;29.42;;;16.00;99.90;;;;;;4942669;28;20049;-76
2023/05/09 06:12:34;;;;;;;45.22;28.65;;;16.10;99.90;;;;;;4968054;28;20042;-73
2023/05/09 06:15:00;;;;;;;43.85;27.67;;;16.20;99.90;;;;;;4963197;28;20037;-74
2023/05/09 06:17:27;;;;;;;44.65;29.67;;;16.20;99.90;;;;;;4950133;28;20038;-73
2023/05/09 06:19:55;;;;;;;41.72;27.60;;;16.30;99.90;;;;;;4922942;28;20961;-73
2023/05/09 06:22:21;;;;;;;37.08;26.30;;;16.30;99.90;;;;;;4956592;28;20491;-75
2023/05/09 06:24:47;;;;;;;41.05;27.48;;;16.30;99.90;;;;;;4971137;28;20038;-73
2023/05/09 06:27:14;;;;;;;35.92;25.65;;;16.40;99.90;;;;;;4937965;28;20062;-73
2023/05/09 06:29:40;;;;;;;38.50;27.27;;;16.40;99.90;;;;;;4952732;28;20038;-72
2023/05/09 06:32:06;;;;;;;33.10;25.25;;;16.40;99.90;;;;;;4951785;28;20044;-73
2023/05/09 06:34:33;;;;;;;36.25;24.83;;;16.50;99.90;;;;;;4952332;28;20097;-74
2023/05/09 06:36:59;;;;;;;40.38;29.58;;;16.50;99.90;;;;;;4955630;28;20027;-74
2023/05/09 06:39:25;;;;;;;37.92;26.67;;;16.50;99.90;;;;;;4954950;28;20038;-75
2023/05/09 06:41:52;;;;;;;34.67;25.50;;;16.60;99.90;;;;;;4956131;28;20037;-72
2023/05/09 06:44:27;;;;;;;32.75;23.13;;;16.60;99.90;;;;;;4959316;28;20397;-74
2023/05/09 06:46:53;;;;;;;32.78;23.42;;;16.60;99.90;;;;;;4962573;28;20405;-71
2023/05/09 06:49:19;;;;;;;36.97;26.58;;;16.70;99.90;;;;;;4954594;28;20049;-75
2023/05/09 06:51:46;;;;;;;37.92;27.42;;;16.90;99.90;;;;;;4949530;28;20359;-75
2023/05/09 06:54:12;;;;;;;32.40;23.52;;;16.90;99.90;;;;;;4933913;28;20050;-75
2023/05/09 06:56:38;;;;;;;32.88;22.63;;;17.00;99.90;;;;;;4956494;28;20034;-73
2023/05/09 06:59:04;;;;;;;30.17;23.48;;;17.20;99.90;;;;;;4957562;28;20041;-76
2023/05/09 07:01:31;;;;;;;28.17;21.88;;;17.30;99.90;;;;;;4950165;28;20050;-74
2023/05/09 07:03:58;;;;;;;29.63;22.77;;;17.40;99.90;;;;;;4959984;28;20394;-74
2023/05/09 07:06:24;;;;;;;27.35;21.27;;;17.50;99.90;;;;;;4962709;28;20042;-74
2023/05/09 07:08:50;;;;;;;28.02;21.60;;;17.50;99.90;;;;;;4959126;28;20035;-74
2023/05/09 07:11:17;;;;;;;26.45;20.85;;;17.60;99.90;;;;;;4932049;28;20041;-74
2023/05/09 07:13:43;;;;;;;22.52;19.05;;;17.60;99.90;;;;;;4954914;28;20608;-74
2023/05/09 07:16:10;;;;;;;23.35;20.10;;;17.70;99.90;;;;;;4955712;28;20047;-74
2023/05/09 07:18:36;;;;;;;20.65;17.35;;;17.80;99.90;;;;;;4957576;28;20038;-74
2023/05/09 07:21:02;;;;;;;19.92;17.15;;;17.80;99.90;;;;;;4949317;28;20038;-74
2023/05/09 07:23:28;;;;;;;19.70;16.05;;;17.70;99.90;;;;;;4937488;28;20069;-74
2023/05/09 07:25:58;;;;;;;22.42;16.58;;;17.70;99.90;;;;;;4959601;28;20614;-74
2023/05/09 07:28:25;;;;;;;20.58;16.42;;;17.80;99.90;;;;;;4962881;28;20041;-74
2023/05/09 07:30:51;;;;;;;16.75;14.13;;;17.80;99.90;;;;;;4953141;28;20605;-74
2023/05/09 07:33:17;;;;;;;21.05;17.02;;;17.80;99.90;;;;;;4952461;28;20064;-74
2023/05/09 07:35:43;;;;;;;18.75;15.57;;;17.80;99.90;;;;;;4952412;28;20034;-74
2023/05/09 07:38:10;;;;;;;18.65;15.55;;;17.80;99.90;;;;;;4939420;28;20041;-73
2023/05/09 07:40:37;;;;;;;20.98;18.17;;;17.80;99.90;;;;;;4949594;28;20413;-76
2023/05/09 07:43:04;;;;;;;17.35;14.50;;;17.90;99.90;;;;;;4955242;28;20038;-74
2023/05/09 07:45:30;;;;;;;18.08;15.70;;;17.90;99.90;;;;;;4952824;28;20065;-76
2023/05/09 07:47:56;;;;;;;19.25;16.83;;;18.00;99.90;;;;;;4961688;28;20493;-76
2023/05/09 07:50:22;;;;;;;17.58;14.15;;;18.00;99.90;;;;;;4956679;28;20038;-75
2023/05/09 07:52:50;;;;;;;16.85;13.77;;;18.10;99.90;;;;;;4961684;28;20038;-74
2023/05/09 07:55:16;;;;;;;17.05;14.55;;;18.20;99.90;;;;;;4953244;28;20041;-74
2023/05/09 07:57:42;;;;;;;21.02;17.58;;;18.30;99.90;;;;;;4938380;28;20046;-75
2023/05/09 08:00:09;;;;;;;20.83;18.00;;;18.40;99.90;;;;;;4950234;28;20038;-74
2023/05/09 08:02:42;;;;;;;19.70;17.15;;;18.40;99.90;;;;;;4971428;28;20038;-74
2023/05/09 08:05:10;;;;;;;18.33;16.42;;;18.40;99.90;;;;;;4950959;28;20509;-75
2023/05/09 08:07:36;;;;;;;18.55;15.65;;;18.50;99.90;;;;;;4954723;28;20052;-74
2023/05/09 08:10:03;;;;;;;25.23;19.73;;;18.60;99.90;;;;;;4953286;28;20038;-74
2023/05/09 08:12:29;;;;;;;19.95;16.67;;;18.70;99.90;;;;;;4961124;28;20529;-75
2023/05/09 08:14:55;;;;;;;17.85;15.95;;;18.70;99.90;;;;;;4957375;28;20656;-74
2023/05/09 08:17:21;;;;;;;19.75;17.00;;;18.70;99.90;;;;;;4954118;28;20038;-74
2023/05/09 08:19:48;;;;;;;17.20;15.38;;;18.70;99.90;;;;;;4953709;28;20049;-73
2023/05/09 08:22:18;;;;;;;21.10;17.33;;;18.80;99.90;;;;;;4936509;28;20457;-71
2023/05/09 08:24:45;;;;;;;19.63;16.95;;;18.80;99.90;;;;;;4950561;28;20041;-71
2023/05/09 08:27:13;;;;;;;18.42;16.42;;;18.90;99.90;;;;;;4954116;28;20054;-72
2023/05/09 08:29:40;;;;;;;16.20;14.20;;;18.90;99.90;;;;;;4952364;28;20045;-72
2023/05/09 08:32:06;;;;;;;15.57;13.43;;;19.00;99.90;;;;;;4954808;28;20441;-72
2023/05/09 08:34:34;;;;;;;14.75;13.20;;;19.00;99.90;;;;;;4960787;28;20037;-71
2023/05/09 08:37:01;;;;;;;23.00;19.15;;;18.90;99.90;;;;;;4959889;28;20038;-71
2023/05/09 08:39:27;;;;;;;16.52;14.50;;;18.90;99.90;;;;;;4951241;28;20034;-72
2023/05/09 08:41:57;;;;;;;18.75;16.75;;;18.70;99.90;;;;;;4965247;28;20042;-72
2023/05/09 08:44:25;;;;;;;17.50;15.68;;;18.60;99.90;;;;;;4948379;28;20409;-72
2023/05/09 08:46:53;;;;;;;19.05;14.82;;;18.50;99.90;;;;;;4968749;28;20417;-72
2023/05/09 08:49:20;;;;;;;17.15;14.05;;;18.40;99.90;;;;;;4952404;28;20034;-72
2023/05/09 08:51:50;;;;;;;20.35;18.15;;;18.40;99.90;;;;;;4950577;28;20045;-73
2023/05/09 08:54:18;;;;;;;19.33;15.65;;;18.40;99.90;;;;;;4958036;28;20395;-72
2023/05/09 08:56:44;;;;;;;14.30;12.10;;;18.30;99.90;;;;;;4959425;28;20030;-73
2023/05/09 08:59:12;;;;;;;15.70;13.50;;;18.20;99.90;;;;;;4955742;28;20035;-73
2023/05/09 09:01:40;;;;;;;14.50;11.85;;;18.20;99.90;;;;;;4946834;28;20061;-73
2023/05/09 09:04:07;;;;;;;13.00;11.52;;;18.20;99.90;;;;;;4967264;28;20035;-73
2023/05/09 09:06:35;;;;;;;15.75;11.38;;;18.20;99.90;;;;;;4966888;28;20042;-72
2023/05/09 09:09:04;;;;;;;14.68;12.98;;;18.30;99.90;;;;;;4954245;28;23014;-74
2023/05/09 09:11:32;;;;;;;18.23;14.82;;;18.50;99.90;;;;;;4945862;28;20077;-73
2023/05/09 09:14:04;;;;;;;16.58;12.98;;;18.50;99.90;;;;;;4973338;28;20050;-72
2023/05/09 09:16:31;;;;;;;12.93;11.40;;;18.60;99.90;;;;;;4960337;28;20234;-73
2023/05/09 09:18:59;;;;;;;13.82;11.50;;;18.60;99.90;;;;;;4958733;28;20050;-74
2023/05/09 09:21:26;;;;;;;13.18;11.18;;;18.50;99.90;;;;;;4948535;28;21375;-74
2023/05/09 09:23:55;;;;;;;14.45;12.95;;;18.50;99.90;;;;;;4933570;28;20049;-79
2023/05/09 09:26:21;;;;;;;17.50;15.30;;;18.40;99.90;;;;;;4951550;28;20069;-75
2023/05/09 09:28:47;;;;;;;18.05;15.60;;;18.20;99.90;;;;;;4952541;28;20545;-76
2023/05/09 09:31:25;;;;;;;15.82;13.68;;;18.00;99.90;;;;;;4948536;28;20041;-76
2023/05/09 09:33:51;;;;;;;17.85;15.95;;;17.90;99.90;;;;;;4951621;28;20041;-75
2023/05/09 09:36:28;;;;;;;19.55;16.00;;;17.80;99.90;;;;;;4957781;28;20501;-76
2023/05/09 09:39:03;;;;;;;13.45;12.00;;;17.80;99.90;;;;;;4963772;28;20030;-78
2023/05/09 09:41:34;;;;;;;17.02;13.48;;;17.80;99.90;;;;;;4950541;28;20791;-76
2023/05/09 09:44:06;;;;;;;15.07;13.10;;;17.80;99.90;;;;;;4950128;28;20036;-76
2023/05/09 09:46:46;;;;;;;16.23;12.52;;;17.70;99.90;;;;;;4938455;28;20050;-75
2023/05/09 09:49:14;;;;;;;14.75;13.23;;;17.70;99.90;;;;;;4951872;28;20417;-73
2023/05/09 09:51:41;;;;;;;12.13;10.75;;;17.80;99.90;;;;;;4966052;28;20058;-73
2023/05/09 09:54:09;;;;;;;10.77;8.60;;;18.00;99.90;;;;;;4948607;28;20524;-73
2023/05/09 09:56:44;;;;;;;10.38;9.20;;;18.10;99.90;;;;;;4940911;28;22335;-73
2023/05/09 09:59:12;;;;;;;13.45;10.82;;;18.20;99.90;;;;;;4959474;28;20411;-74
2023/05/09 10:01:59;;;;;;;9.05;8.15;;;18.50;99.90;;;;;;4961224;28;20536;-73
2023/05/09 10:04:36;;;;;;;9.45;8.45;;;18.60;99.90;;;;;;4969646;28;20038;-75
2023/05/09 10:07:05;;;;;;;10.15;9.15;;;18.70;99.90;;;;;;4956455;28;20049;-76
2023/05/09 10:09:33;;;;;;;9.80;8.32;;;18.80;99.90;;;;;;4925482;28;20041;-76
2023/05/09 10:12:03;;;;;;;8.45;7.50;;;19.00;99.90;;;;;;4953914;28;20054;-77
2023/05/09 10:14:31;;;;;;;7.75;6.95;;;19.10;99.90;;;;;;4951465;28;20042;-76
2023/05/09 10:17:00;;;;;;;9.55;8.55;;;19.20;99.90;;;;;;4956260;28;20041;-79
2023/05/09 10:19:28;;;;;;;9.70;8.75;;;19.30;99.90;;;;;;4962883;28;20035;-77
2023/05/09 10:22:03;;;;;;;10.63;8.70;;;19.40;99.90;;;;;;4954053;28;20042;-77
2023/05/09 10:24:34;;;;;;;8.15;6.35;;;19.50;99.90;;;;;;4957988;28;20041;-76
2023/05/09 10:27:08;;;;;;;6.07;4.80;;;19.60;99.90;;;;;;4956076;28;20406;-76
2023/05/09 10:29:40;;;;;;;7.07;6.38;;;19.70;99.90;;;;;;4953676;28;20038;-76
2023/05/09 10:32:20;;;;;;;6.78;5.60;;;19.80;99.90;;;;;;4952916;28;20038;-76
2023/05/09 10:34:51;;;;;;;5.57;4.65;;;19.80;99.90;;;;;;4936434;28;20038;-76
2023/05/09 10:37:20;;;;;;;8.25;6.45;;;19.80;99.90;;;;;;4956407;28;20046;-76
2023/05/09 10:39:51;;;;;;;6.45;4.65;;;19.90;99.90;;;;;;4954534;28;20069;-76
2023/05/09 10:42:19;;;;;;;4.97;3.90;;;20.00;99.90;;;;;;4975843;28;20034;-76
2023/05/09 10:44:50;;;;;;;9.30;5.45;;;20.10;99.90;;;;;;4956618;28;20049;-75
2023/05/09 10:47:17;;;;;;;6.25;5.20;;;20.20;99.90;;;;;;4973258;28;20038;-75
2023/05/09 10:49:44;;;;;;;5.20;3.97;;;20.20;99.90;;;;;;4938566;28;20042;-76
2023/05/09 10:52:11;;;;;;;5.00;4.28;;;20.20;99.90;;;;;;4951912;28;20049;-73
2023/05/09 10:54:37;;;;;;;5.22;4.63;;;20.10;99.90;;;;;;4951991;28;20524;-73
2023/05/09 10:57:07;;;;;;;5.55;2.65;;;20.00;99.90;;;;;;4954497;28;22879;-74
2023/05/09 10:59:41;;;;;;;3.28;2.65;;;19.80;99.90;;;;;;4937510;28;20474;-75
2023/05/09 11:02:19;;;;;;;5.35;4.68;;;19.70;99.90;;;;;;4954911;28;20034;-75
2023/05/09 11:04:45;;;;;;;4.57;3.92;;;19.50;99.90;;;;;;4960050;28;20041;-75
2023/05/09 11:07:25;;;;;;;4.32;3.88;;;19.40;99.90;;;;;;4963120;28;20413;-76
2023/05/09 11:10:06;;;;;;;5.10;4.70;;;19.20;99.90;;;;;;4954871;28;21272;-75
2023/05/09 11:12:32;;;;;;;4.70;4.15;;;19.10;99.90;;;;;;4954160;28;20054;-76
2023/05/09 11:15:06;;;;;;;6.80;5.55;;;19.00;99.90;;;;;;4950228;28;20401;-76
2023/05/09 11:17:37;;;;;;;4.38;3.95;;;18.80;99.90;;;;;;4924740;28;20042;-78
2023/05/09 11:20:05;;;;;;;7.13;5.38;;;18.70;99.90;;;;;;4951681;28;20595;-78
2023/05/09 11:22:40;;;;;;;5.20;4.70;;;18.60;99.90;;;;;;4956004;28;20038;-76
2023/05/09 11:25:14;;;;;;;7.07;5.07;;;18.50;99.90;;;;;;4955439;28;20425;-78
2023/05/09 11:27:46;;;;;;;6.43;5.43;;;18.40;99.90;;;;;;4958935;28;20045;-74
2023/05/09 11:30:19;;;;;;;5.22;4.72;;;18.30;99.90;;;;;;4935718;28;20042;-73
2023/05/09 11:32:52;;;;;;;5.45;4.93;;;18.20;99.90;;;;;;4952756;28;20425;-72
2023/05/09 11:35:20;;;;;;;5.47;4.15;;;18.10;99.90;;;;;;4952022;28;20046;-73
2023/05/09 11:38:00;;;;;;;8.13;4.80;;;17.90;99.90;;;;;;4952836;28;20026;-72
2023/05/09 11:40:27;;;;;;;5.97;5.45;;;17.80;99.90;;;;;;4945588;28;20078;-75
2023/05/09 11:42:56;;;;;;;5.40;4.75;;;17.70;99.90;;;;;;4955973;28;20038;-74
2023/05/09 11:45:25;;;;;;;6.70;4.72;;;17.50;99.90;;;;;;4950514;28;20041;-75
2023/05/09 11:47:52;;;;;;;8.02;6.30;;;17.50;99.90;;;;;;4959247;28;20043;-74
2023/05/09 11:50:20;;;;;;;7.05;6.15;;;17.40;99.90;;;;;;4954552;28;20041;-75
2023/05/09 11:52:47;;;;;;;5.38;4.63;;;17.30;99.90;;;;;;4959681;28;20529;-75
2023/05/09 11:55:17;;;;;;;3.30;2.95;;;17.30;99.90;;;;;;4947816;28;21137;-73
2023/05/09 11:57:46;;;;;;;3.80;2.63;;;17.20;99.90;;;;;;4970311;28;20038;-73
2023/05/09 12:00:18;;;;;;;5.65;3.65;;;17.20;99.90;;;;;;4951927;28;20026;-73
2023/05/09 12:02:46;;;;;;;3.45;2.63;;;17.10;99.90;;;;;;4968295;28;20040;-73
2023/05/09 12:05:17;;;;;;;2.85;2.13;;;17.10;99.90;;;;;;4950308;28;20053;-73
2023/05/09 12:07:44;;;;;;;2.92;2.30;;;17.10;99.90;;;;;;4956135;28;20044;-73
2023/05/09 12:10:13;;;;;;;2.13;1.85;;;17.10;99.90;;;;;;4952903;28;20039;-73
2023/05/09 12:12:48;;;;;;;2.58;1.30;;;17.20;99.90;;;;;;4941330;28;20061;-73
2023/05/09 12:15:15;;;;;;;2.45;1.80;;;17.20;99.90;;;;;;4939630;28;20045;-73
2023/05/09 12:17:43;;;;;;;1.70;1.25;;;17.20;99.90;;;;;;4953060;28;20073;-74
2023/05/09 12:20:09;;;;;;;2.40;1.20;;;17.30;99.90;;;;;;4948707;28;20410;-73
2023/05/09 12:22:36;;;;;;;2.22;1.20;;;17.30;99.90;;;;;;4951745;28;20390;-73
2023/05/09 12:25:09;;;;;;;1.50;0.90;;;17.30;99.90;;;;;;4948224;28;20049;-72
2023/05/09 12:27:37;;;;;;;1.98;1.10;;;17.30;99.90;;;;;;4953440;28;20037;-73
2023/05/09 12:30:12;;;;;;;5.38;1.70;;;17.30;99.90;;;;;;4949924;28;20042;-73
2023/05/09 12:32:39;;;;;;;2.10;1.10;;;17.30;99.90;;;;;;4959428;28;20922;-73
2023/05/09 12:35:09;;;;;;;1.85;1.00;;;17.10;99.90;;;;;;4958148;28;20523;-73
2023/05/09 12:37:35;;;;;;;2.22;1.00;;;17.20;99.90;;;;;;4959901;28;20038;-72